Daonith — 5BXB3 — position and weather

sailwx.info

Track history (hours):
 
Tides and Currents Weather Stations Pressure Air Temp Water Temp Dewpoint Dewpoint Depression Visibility Wind Speed Wind Dir Waves Ship Positions

Daonith

Last reported at 2018-Jun-24 09:46 UTC. Time now 2018-Jun-24 18:48 UTC.
Position N 43°36' W 005°57'.

Length 92 m; draft 5.6 m.

Type: Ship. MMSI: 210632708.

Date/timePositionNaut miles runAvg speedWind from/ knotsBaromVisibWave heightAir tempDewpointWater temp
2018-Jun-24 09:46N 43°36' W 005°57'1 0.1
2018-Jun-23 20:48N 43°36' W 005°59'2 7.3
2018-Jun-23 20:30N 43°37' W 006°01'5 8.3
2018-Jun-23 19:57N 43°39' W 006°07'  
2018-Jun-21 13:39N 39°19' W 009°56'210.1
2018-Jun-21 13:30N 39°18' W 009°56'510.0
2018-Jun-21 13:00N 39°13' W 009°56'510.0
2018-Jun-21 12:30N 39°08' W 009°56'510.2
2018-Jun-21 12:00N 39°03' W 009°56'5 9.8
2018-Jun-21 11:30N 38°58' W 009°56'5 9.8
2018-Jun-21 11:00N 38°53' W 009°56'5 9.9
2018-Jun-21 10:30N 38°48' W 009°56'5 9.9
2018-Jun-21 10:00N 38°43' W 009°56'5 9.6
2018-Jun-21 09:30N 38°38' W 009°54'4 8.4
2018-Jun-21 09:00N 38°37' W 009°49'5 9.9
2018-Jun-21 08:30N 38°37' W 009°43'510.0
2018-Jun-21 08:00N 38°37' W 009°36'5 9.7
2018-Jun-21 07:30N 38°37' W 009°30'510.4
2018-Jun-21 07:00N 38°36' W 009°24'510.4
2018-Jun-21 06:30N 38°40' W 009°19'5 8.8
2018-Jun-21 05:57N 38°41' W 009°13'4 9.4
2018-Jun-21 05:30N 38°41' W 009°07'3 5.9
2018-Jun-21 05:00N 38°41' W 009°04'0 0.0
2018-Jun-19 16:18N 38°41' W 009°04'0 0.0
2018-Jun-19 16:00N 38°41' W 009°04'0 0.4
2018-Jun-19 15:31N 38°41' W 009°04'3 6.8
2018-Jun-19 15:00N 38°41' W 009°08'5 9.5
2018-Jun-19 14:31N 38°41' W 009°14'5 9.6
2018-Jun-19 14:00N 38°39' W 009°20'4 8.7
2018-Jun-19 13:30N 38°37' W 009°25'5 9.2
2018-Jun-19 13:01N 38°37' W 009°31'5 9.7
2018-Jun-19 12:30N 38°37' W 009°37'5 9.9
2018-Jun-19 12:01N 38°37' W 009°43'510.1
2018-Jun-19 11:30N 38°36' W 009°50'510.1
2018-Jun-19 11:00N 38°36' W 009°56'5 9.9
2018-Jun-19 10:27N 38°35' W 010°03'5 9.7
2018-Jun-19 09:58N 38°34' W 010°09'7 9.4
2018-Jun-19 09:15N 38°40' W 010°12'2 9.2
2018-Jun-19 09:00N 38°43' W 010°13'7 9.6
2018-Jun-19 08:19N 38°49' W 010°12'3 9.9
2018-Jun-19 07:59N 38°52' W 010°12'5 9.6
2018-Jun-19 07:30N 38°57' W 010°12'5 9.9
2018-Jun-19 07:00N 39°02' W 010°12'5 9.9
2018-Jun-19 06:30N 39°07' W 010°13'5 9.7
2018-Jun-19 06:00N 39°12' W 010°13'510.2
2018-Jun-19 05:31N 39°17' W 010°13'510.5
2018-Jun-19 05:00N 39°22' W 010°13'510.2
2018-Jun-19 04:30N 39°27' W 010°13'510.4
2018-Jun-19 04:00N 39°32' W 010°13'510.4
2018-Jun-19 03:30N 39°38' W 010°13'510.1
2018-Jun-19 03:01N 39°43' W 010°13'510.2
2018-Jun-19 02:30N 39°48' W 010°13'510.4
2018-Jun-19 02:01N 39°53' W 010°13'510.1
2018-Jun-19 01:31N 39°58' W 010°13'510.2
2018-Jun-19 01:01N 40°03' W 010°13'610.3
2018-Jun-19 00:24N 40°09' W 010°13'410.3
2018-Jun-18 23:59N 40°14' W 010°13'510.2
2018-Jun-18 23:31N 40°18' W 010°13'510.7
2018-Jun-18 23:01N 40°24' W 010°13'1010.6
2018-Jun-18 22:06N 40°33' W 010°13'278 7.6
2018-Jun-17 09:26N 43°47' W 005°44'610.3
2018-Jun-17 08:50N 43°46' W 005°35'410.5
2018-Jun-17 08:26N 43°46' W 005°30'510.4
2018-Jun-17 07:59N 43°45' W 005°23'610.1
2018-Jun-17 07:24N 43°45' W 005°15'1210.6
2018-Jun-17 06:15N 43°46' W 004°58'410.4
2018-Jun-17 05:49N 43°46' W 004°52'5710.4
2018-Jun-17 00:22N 43°38' W 003°34'410.3
2018-Jun-17 00:00N 43°38' W 003°29'5 9.8
2018-Jun-16 23:31N 43°36' W 003°23'510.1
2018-Jun-16 23:01N 43°33' W 003°18'510.3
2018-Jun-16 22:30N 43°29' W 003°13'510.4
2018-Jun-16 22:01N 43°26' W 003°08'4 8.3
2018-Jun-16 21:31N 43°22' W 003°05'0 0.0
2018-Jun-16 09:32N 43°22' W 003°05'0 0.0
2018-Jun-16 09:31N 43°22' W 003°05'1 1.1
2018-Jun-16 09:01N 43°22' W 003°05'4 6.9
2018-Jun-16 08:30N 43°26' W 003°06'510.5
2018-Jun-16 08:00N 43°30' W 003°09'610.7
2018-Jun-16 07:29N 43°36' W 003°12'510.7
2018-Jun-16 07:00N 43°41' W 003°14'610.9
2018-Jun-16 06:26N 43°46' W 003°17'  
Track history (hours):
 
Tides and Currents Weather Stations Pressure Air Temp Water Temp Dewpoint Dewpoint Depression Visibility Wind Speed Wind Dir Waves Ship Positions

Daonith

Last reported at 2018-Jun-24 09:46 UTC. Time now 2018-Jun-24 18:48 UTC.
Position N 43°36' W 005°57'.

Length 92 m; draft 5.6 m.

Type: Ship. MMSI: 210632708.

Date/timePositionNaut miles runAvg speedWind from/ knotsBaromVisibWave heightAir tempDewpointWater temp
2018-Jun-24 09:46N 43°36' W 005°57'1 0.1
2018-Jun-23 20:48N 43°36' W 005°59'2 7.3
2018-Jun-23 20:30N 43°37' W 006°01'5 8.3
2018-Jun-23 19:57N 43°39' W 006°07'  
2018-Jun-21 13:39N 39°19' W 009°56'210.1
2018-Jun-21 13:30N 39°18' W 009°56'510.0
2018-Jun-21 13:00N 39°13' W 009°56'510.0
2018-Jun-21 12:30N 39°08' W 009°56'510.2
2018-Jun-21 12:00N 39°03' W 009°56'5 9.8
2018-Jun-21 11:30N 38°58' W 009°56'5 9.8
2018-Jun-21 11:00N 38°53' W 009°56'5 9.9
2018-Jun-21 10:30N 38°48' W 009°56'5 9.9
2018-Jun-21 10:00N 38°43' W 009°56'5 9.6
2018-Jun-21 09:30N 38°38' W 009°54'4 8.4
2018-Jun-21 09:00N 38°37' W 009°49'5 9.9
2018-Jun-21 08:30N 38°37' W 009°43'510.0
2018-Jun-21 08:00N 38°37' W 009°36'5 9.7
2018-Jun-21 07:30N 38°37' W 009°30'510.4
2018-Jun-21 07:00N 38°36' W 009°24'510.4
2018-Jun-21 06:30N 38°40' W 009°19'5 8.8
2018-Jun-21 05:57N 38°41' W 009°13'4 9.4
2018-Jun-21 05:30N 38°41' W 009°07'3 5.9
2018-Jun-21 05:00N 38°41' W 009°04'0 0.0
2018-Jun-19 16:18N 38°41' W 009°04'0 0.0
2018-Jun-19 16:00N 38°41' W 009°04'0 0.4
2018-Jun-19 15:31N 38°41' W 009°04'3 6.8
2018-Jun-19 15:00N 38°41' W 009°08'5 9.5
2018-Jun-19 14:31N 38°41' W 009°14'5 9.6
2018-Jun-19 14:00N 38°39' W 009°20'4 8.7
2018-Jun-19 13:30N 38°37' W 009°25'5 9.2
2018-Jun-19 13:01N 38°37' W 009°31'5 9.7
2018-Jun-19 12:30N 38°37' W 009°37'5 9.9
2018-Jun-19 12:01N 38°37' W 009°43'510.1
2018-Jun-19 11:30N 38°36' W 009°50'510.1
2018-Jun-19 11:00N 38°36' W 009°56'5 9.9
2018-Jun-19 10:27N 38°35' W 010°03'5 9.7
2018-Jun-19 09:58N 38°34' W 010°09'7 9.4
2018-Jun-19 09:15N 38°40' W 010°12'2 9.2
2018-Jun-19 09:00N 38°43' W 010°13'7 9.6
2018-Jun-19 08:19N 38°49' W 010°12'3 9.9
2018-Jun-19 07:59N 38°52' W 010°12'5 9.6
2018-Jun-19 07:30N 38°57' W 010°12'5 9.9
2018-Jun-19 07:00N 39°02' W 010°12'5 9.9
2018-Jun-19 06:30N 39°07' W 010°13'5 9.7
2018-Jun-19 06:00N 39°12' W 010°13'510.2
2018-Jun-19 05:31N 39°17' W 010°13'510.5
2018-Jun-19 05:00N 39°22' W 010°13'510.2
2018-Jun-19 04:30N 39°27' W 010°13'510.4
2018-Jun-19 04:00N 39°32' W 010°13'510.4
2018-Jun-19 03:30N 39°38' W 010°13'510.1
2018-Jun-19 03:01N 39°43' W 010°13'510.2
2018-Jun-19 02:30N 39°48' W 010°13'510.4
2018-Jun-19 02:01N 39°53' W 010°13'510.1
2018-Jun-19 01:31N 39°58' W 010°13'510.2
2018-Jun-19 01:01N 40°03' W 010°13'610.3
2018-Jun-19 00:24N 40°09' W 010°13'410.3
2018-Jun-18 23:59N 40°14' W 010°13'510.2
2018-Jun-18 23:31N 40°18' W 010°13'510.7
2018-Jun-18 23:01N 40°24' W 010°13'1010.6
2018-Jun-18 22:06N 40°33' W 010°13'278 7.6
2018-Jun-17 09:26N 43°47' W 005°44'610.3
2018-Jun-17 08:50N 43°46' W 005°35'410.5
2018-Jun-17 08:26N 43°46' W 005°30'510.4
2018-Jun-17 07:59N 43°45' W 005°23'610.1
2018-Jun-17 07:24N 43°45' W 005°15'1210.6
2018-Jun-17 06:15N 43°46' W 004°58'410.4
2018-Jun-17 05:49N 43°46' W 004°52'5710.4
2018-Jun-17 00:22N 43°38' W 003°34'410.3
2018-Jun-17 00:00N 43°38' W 003°29'5 9.8
2018-Jun-16 23:31N 43°36' W 003°23'510.1
2018-Jun-16 23:01N 43°33' W 003°18'510.3
2018-Jun-16 22:30N 43°29' W 003°13'510.4
2018-Jun-16 22:01N 43°26' W 003°08'4 8.3
2018-Jun-16 21:31N 43°22' W 003°05'0 0.0
2018-Jun-16 09:32N 43°22' W 003°05'0 0.0
2018-Jun-16 09:31N 43°22' W 003°05'1 1.1
2018-Jun-16 09:01N 43°22' W 003°05'4 6.9
2018-Jun-16 08:30N 43°26' W 003°06'510.5
2018-Jun-16 08:00N 43°30' W 003°09'610.7
2018-Jun-16 07:29N 43°36' W 003°12'510.7
2018-Jun-16 07:00N 43°41' W 003°14'610.9
2018-Jun-16 06:26N 43°46' W 003°17'  

Dump ship's entire track history